aviador You're here:

KFDW Decoded Metar

FAIRFIELD COUNTY AIRPORT in SC, USA
Report Time2017-11-24 01:35:00
UTC Time2017-11-24 01:55:50
Flight Rules vfr VFR
Wind050° at 03 kt
W.Decomp.*RWY 04: 2.9 kt HW 0.9 kt RCW
W.Rank050° ranks 6
Current wind is below 050° avg. (6.3)
Visibility9999 m
Phenomena:N/A
Clouds:N/A
Expected CloudBase > 1,600 ft AGL from Temp-Dew spread
CeilingNone
Temp05°C (ISA -9)
Dew Point01°C (76% RH)
AAT2.1°C
QNH1017 hPa
Density Alt-535 ft
Elevation577 ft
Report Wrong Elevation
Raw Report
METAR KFDW 240135Z AUTO 05003KT 10SM CLR 05/01 A3003 RMK AO1=

Extra information for KFDW:More info

Metar Taf Metar & Taf Last 4 Metars F.Rules Stats Wind Profile Meteogram Temp Stats Airport Information Weather charts Add Link Nearby VenuesMetar ALERT Operation Metar Decoded Social comments

AIRNAV info for KFDW